sensor_id;sensor_type;location;lat;lon;timestamp;pressure;altitude;pressure_sealevel;temperature;humidity
35307;BME280;21420;52.196;21.416;2024-01-07T00:02:25;100342.86;;;-4.49;71.39
35307;BME280;21420;52.196;21.416;2024-01-07T00:04:52;100342.05;;;-4.53;71.56
35307;BME280;21420;52.196;21.416;2024-01-07T00:07:19;100344.77;;;-4.54;71.52
35307;BME280;21420;52.196;21.416;2024-01-07T00:09:47;100349.41;;;-4.54;71.46
35307;BME280;21420;52.196;21.416;2024-01-07T00:12:14;100353.94;;;-4.52;71.42
35307;BME280;21420;52.196;21.416;2024-01-07T00:14:41;100356.80;;;-4.53;71.52
35307;BME280;21420;52.196;21.416;2024-01-07T00:17:07;100359.69;;;-4.53;71.47
35307;BME280;21420;52.196;21.416;2024-01-07T00:19:34;100359.55;;;-4.55;71.34
35307;BME280;21420;52.196;21.416;2024-01-07T00:22:02;100358.16;;;-4.57;71.53
35307;BME280;21420;52.196;21.416;2024-01-07T00:24:29;100358.27;;;-4.60;71.25
35307;BME280;21420;52.196;21.416;2024-01-07T00:26:56;100359.29;;;-4.63;71.39
35307;BME280;21420;52.196;21.416;2024-01-07T00:29:22;100364.17;;;-4.67;71.37
35307;BME280;21420;52.196;21.416;2024-01-07T00:31:49;100365.83;;;-4.69;71.42
35307;BME280;21420;52.196;21.416;2024-01-07T00:34:16;100362.86;;;-4.71;71.53
35307;BME280;21420;52.196;21.416;2024-01-07T00:36:43;100364.20;;;-4.73;71.39
35307;BME280;21420;52.196;21.416;2024-01-07T00:39:09;100369.65;;;-4.75;71.37
35307;BME280;21420;52.196;21.416;2024-01-07T00:41:36;100371.21;;;-4.80;71.30
35307;BME280;21420;52.196;21.416;2024-01-07T00:44:03;100366.98;;;-4.86;71.29
35307;BME280;21420;52.196;21.416;2024-01-07T00:46:30;100368.23;;;-4.89;71.31
35307;BME280;21420;52.196;21.416;2024-01-07T00:48:57;100370.77;;;-4.93;71.40
35307;BME280;21420;52.196;21.416;2024-01-07T00:51:23;100370.33;;;-4.99;71.37
35307;BME280;21420;52.196;21.416;2024-01-07T00:53:50;100375.58;;;-5.03;71.32
35307;BME280;21420;52.196;21.416;2024-01-07T00:56:17;100380.09;;;-5.07;71.16
35307;BME280;21420;52.196;21.416;2024-01-07T00:58:43;100380.64;;;-5.10;71.31
35307;BME280;21420;52.196;21.416;2024-01-07T01:01:10;100381.77;;;-5.16;71.29
35307;BME280;21420;52.196;21.416;2024-01-07T01:03:37;100383.20;;;-5.22;71.21
35307;BME280;21420;52.196;21.416;2024-01-07T01:06:04;100386.53;;;-5.28;71.12
35307;BME280;21420;52.196;21.416;2024-01-07T01:08:31;100385.69;;;-5.32;71.24
35307;BME280;21420;52.196;21.416;2024-01-07T01:10:57;100389.56;;;-5.34;71.15
35307;BME280;21420;52.196;21.416;2024-01-07T01:13:24;100389.30;;;-5.37;71.23
35307;BME280;21420;52.196;21.416;2024-01-07T01:15:50;100387.95;;;-5.40;71.34
35307;BME280;21420;52.196;21.416;2024-01-07T01:18:17;100387.60;;;-5.44;71.17
35307;BME280;21420;52.196;21.416;2024-01-07T01:20:44;100393.70;;;-5.48;71.23
35307;BME280;21420;52.196;21.416;2024-01-07T01:23:11;100394.09;;;-5.49;71.20
35307;BME280;21420;52.196;21.416;2024-01-07T01:25:38;100395.01;;;-5.50;71.30
35307;BME280;21420;52.196;21.416;2024-01-07T01:28:06;100394.56;;;-5.53;71.33
35307;BME280;21420;52.196;21.416;2024-01-07T01:30:34;100400.25;;;-5.55;71.33
35307;BME280;21420;52.196;21.416;2024-01-07T01:33:01;100395.23;;;-5.57;71.31
35307;BME280;21420;52.196;21.416;2024-01-07T01:35:28;100397.79;;;-5.58;71.49
35307;BME280;21420;52.196;21.416;2024-01-07T01:37:55;100391.61;;;-5.60;71.22
35307;BME280;21420;52.196;21.416;2024-01-07T01:40:22;100392.17;;;-5.61;71.38
35307;BME280;21420;52.196;21.416;2024-01-07T01:42:48;100396.52;;;-5.63;71.32
35307;BME280;21420;52.196;21.416;2024-01-07T01:45:15;100395.65;;;-5.63;71.36
35307;BME280;21420;52.196;21.416;2024-01-07T01:47:42;100393.33;;;-5.64;71.46
35307;BME280;21420;52.196;21.416;2024-01-07T01:50:10;100393.95;;;-5.66;71.31
35307;BME280;21420;52.196;21.416;2024-01-07T01:52:38;100392.47;;;-5.67;71.41
35307;BME280;21420;52.196;21.416;2024-01-07T01:55:06;100391.63;;;-5.68;71.44
35307;BME280;21420;52.196;21.416;2024-01-07T01:57:34;100390.15;;;-5.72;71.50
35307;BME280;21420;52.196;21.416;2024-01-07T02:00:04;100388.77;;;-5.74;71.41
35307;BME280;21420;52.196;21.416;2024-01-07T02:02:32;100385.48;;;-5.75;71.43
35307;BME280;21420;52.196;21.416;2024-01-07T02:05:01;100385.63;;;-5.76;71.39
35307;BME280;21420;52.196;21.416;2024-01-07T02:07:32;100389.03;;;-5.78;71.41
35307;BME280;21420;52.196;21.416;2024-01-07T02:09:59;100388.73;;;-5.77;71.39
35307;BME280;21420;52.196;21.416;2024-01-07T02:12:26;100388.97;;;-5.80;71.45
35307;BME280;21420;52.196;21.416;2024-01-07T02:14:52;100387.05;;;-5.80;71.53
35307;BME280;21420;52.196;21.416;2024-01-07T02:17:19;100386.40;;;-5.81;71.49
35307;BME280;21420;52.196;21.416;2024-01-07T02:19:46;100388.23;;;-5.82;71.43
35307;BME280;21420;52.196;21.416;2024-01-07T02:22:13;100388.27;;;-5.83;71.28
35307;BME280;21420;52.196;21.416;2024-01-07T02:24:40;100388.93;;;-5.81;71.39
35307;BME280;21420;52.196;21.416;2024-01-07T02:27:07;100385.54;;;-5.81;71.38
35307;BME280;21420;52.196;21.416;2024-01-07T02:29:33;100380.44;;;-5.80;71.46
35307;BME280;21420;52.196;21.416;2024-01-07T02:32:00;100377.80;;;-5.79;71.55
35307;BME280;21420;52.196;21.416;2024-01-07T02:34:26;100374.59;;;-5.79;71.51
35307;BME280;21420;52.196;21.416;2024-01-07T02:36:53;100376.63;;;-5.79;71.57
35307;BME280;21420;52.196;21.416;2024-01-07T02:39:20;100376.11;;;-5.76;71.70
35307;BME280;21420;52.196;21.416;2024-01-07T02:41:49;100372.55;;;-5.74;71.70
35307;BME280;21420;52.196;21.416;2024-01-07T02:44:15;100373.32;;;-5.73;71.59
35307;BME280;21420;52.196;21.416;2024-01-07T02:46:42;100373.76;;;-5.73;71.51
35307;BME280;21420;52.196;21.416;2024-01-07T02:49:09;100373.15;;;-5.76;71.41
35307;BME280;21420;52.196;21.416;2024-01-07T02:51:36;100372.84;;;-5.77;71.41
35307;BME280;21420;52.196;21.416;2024-01-07T02:54:02;100376.08;;;-5.77;71.55
35307;BME280;21420;52.196;21.416;2024-01-07T02:56:29;100376.30;;;-5.75;71.61
35307;BME280;21420;52.196;21.416;2024-01-07T02:58:56;100380.18;;;-5.71;71.66
35307;BME280;21420;52.196;21.416;2024-01-07T03:01:22;100375.85;;;-5.70;71.75
35307;BME280;21420;52.196;21.416;2024-01-07T03:03:50;100375.02;;;-5.69;71.64
35307;BME280;21420;52.196;21.416;2024-01-07T03:06:17;100378.33;;;-5.69;71.49
35307;BME280;21420;52.196;21.416;2024-01-07T03:08:44;100384.43;;;-5.68;71.53
35307;BME280;21420;52.196;21.416;2024-01-07T03:11:10;100385.73;;;-5.68;71.63
35307;BME280;21420;52.196;21.416;2024-01-07T03:13:37;100385.52;;;-5.71;71.53
35307;BME280;21420;52.196;21.416;2024-01-07T03:19:41;100384.42;;;-5.75;71.74
35307;BME280;21420;52.196;21.416;2024-01-07T03:22:08;100377.91;;;-5.74;71.64
35307;BME280;21420;52.196;21.416;2024-01-07T03:24:35;100377.58;;;-5.73;71.61
35307;BME280;21420;52.196;21.416;2024-01-07T03:27:01;100370.86;;;-5.71;71.55
35307;BME280;21420;52.196;21.416;2024-01-07T03:29:28;100372.67;;;-5.69;71.61
35307;BME280;21420;52.196;21.416;2024-01-07T03:31:54;100372.71;;;-5.69;71.39
35307;BME280;21420;52.196;21.416;2024-01-07T03:34:21;100372.02;;;-5.69;71.42
35307;BME280;21420;52.196;21.416;2024-01-07T03:36:48;100375.35;;;-5.70;71.45
35307;BME280;21420;52.196;21.416;2024-01-07T03:39:14;100379.54;;;-5.72;71.40
35307;BME280;21420;52.196;21.416;2024-01-07T03:41:41;100381.16;;;-5.73;71.44
35307;BME280;21420;52.196;21.416;2024-01-07T03:44:08;100378.09;;;-5.74;71.60
35307;BME280;21420;52.196;21.416;2024-01-07T03:46:34;100380.91;;;-5.74;71.38
35307;BME280;21420;52.196;21.416;2024-01-07T03:49:01;100382.52;;;-5.74;71.30
35307;BME280;21420;52.196;21.416;2024-01-07T03:51:28;100381.90;;;-5.77;71.30
35307;BME280;21420;52.196;21.416;2024-01-07T03:53:54;100390.23;;;-5.79;71.36
35307;BME280;21420;52.196;21.416;2024-01-07T03:58:07;100386.65;;;-5.81;71.34
35307;BME280;21420;52.196;21.416;2024-01-07T04:00:34;100388.09;;;-5.88;71.25
35307;BME280;21420;52.196;21.416;2024-01-07T04:03:01;100387.52;;;-5.90;71.32
35307;BME280;21420;52.196;21.416;2024-01-07T04:05:29;100384.07;;;-5.93;71.29
35307;BME280;21420;52.196;21.416;2024-01-07T04:07:56;100387.56;;;-5.97;71.39
35307;BME280;21420;52.196;21.416;2024-01-07T04:10:22;100387.51;;;-5.99;71.28
35307;BME280;21420;52.196;21.416;2024-01-07T04:12:49;100388.57;;;-6.03;71.38
35307;BME280;21420;52.196;21.416;2024-01-07T04:15:15;100387.09;;;-6.05;71.27
35307;BME280;21420;52.196;21.416;2024-01-07T04:17:42;100386.80;;;-6.11;71.31
35307;BME280;21420;52.196;21.416;2024-01-07T04:20:12;100391.84;;;-6.18;71.39
35307;BME280;21420;52.196;21.416;2024-01-07T04:22:39;100390.55;;;-6.22;71.41
35307;BME280;21420;52.196;21.416;2024-01-07T04:25:06;100391.48;;;-6.26;71.42
35307;BME280;21420;52.196;21.416;2024-01-07T04:27:35;100388.58;;;-6.28;71.43
35307;BME280;21420;52.196;21.416;2024-01-07T04:30:02;100392.24;;;-6.33;71.30
35307;BME280;21420;52.196;21.416;2024-01-07T04:32:29;100395.90;;;-6.34;71.43
35307;BME280;21420;52.196;21.416;2024-01-07T04:34:55;100393.64;;;-6.33;71.54
35307;BME280;21420;52.196;21.416;2024-01-07T04:37:24;100391.83;;;-6.32;71.59
35307;BME280;21420;52.196;21.416;2024-01-07T04:39:51;100392.34;;;-6.33;71.52
35307;BME280;21420;52.196;21.416;2024-01-07T04:42:18;100395.31;;;-6.35;71.41
35307;BME280;21420;52.196;21.416;2024-01-07T04:44:45;100399.29;;;-6.35;71.54
35307;BME280;21420;52.196;21.416;2024-01-07T04:47:31;100402.65;;;-6.32;71.50
35307;BME280;21420;52.196;21.416;2024-01-07T04:50:00;100402.03;;;-6.32;71.57
35307;BME280;21420;52.196;21.416;2024-01-07T04:52:27;100401.96;;;-6.32;71.58
35307;BME280;21420;52.196;21.416;2024-01-07T04:54:54;100404.50;;;-6.33;71.60
35307;BME280;21420;52.196;21.416;2024-01-07T04:57:22;100403.75;;;-6.31;71.57
35307;BME280;21420;52.196;21.416;2024-01-07T04:59:49;100404.19;;;-6.31;71.72
35307;BME280;21420;52.196;21.416;2024-01-07T05:02:16;100403.03;;;-6.30;71.61
35307;BME280;21420;52.196;21.416;2024-01-07T05:04:43;100400.53;;;-6.30;71.61
35307;BME280;21420;52.196;21.416;2024-01-07T05:07:10;100403.77;;;-6.29;71.61
35307;BME280;21420;52.196;21.416;2024-01-07T05:09:37;100403.11;;;-6.27;71.52
35307;BME280;21420;52.196;21.416;2024-01-07T05:12:04;100401.09;;;-6.25;71.51
35307;BME280;21420;52.196;21.416;2024-01-07T05:14:31;100403.50;;;-6.24;71.55
35307;BME280;21420;52.196;21.416;2024-01-07T05:16:57;100407.24;;;-6.22;71.67
35307;BME280;21420;52.196;21.416;2024-01-07T05:19:24;100407.71;;;-6.21;71.63
35307;BME280;21420;52.196;21.416;2024-01-07T05:21:51;100408.38;;;-6.21;71.55
35307;BME280;21420;52.196;21.416;2024-01-07T05:24:18;100407.04;;;-6.22;71.63
35307;BME280;21420;52.196;21.416;2024-01-07T05:26:45;100403.56;;;-6.22;71.63
35307;BME280;21420;52.196;21.416;2024-01-07T05:29:12;100408.02;;;-6.21;71.70
35307;BME280;21420;52.196;21.416;2024-01-07T05:31:41;100414.35;;;-6.20;71.62
35307;BME280;21420;52.196;21.416;2024-01-07T05:34:08;100415.61;;;-6.19;71.63
35307;BME280;21420;52.196;21.416;2024-01-07T05:36:35;100421.31;;;-6.19;71.71
35307;BME280;21420;52.196;21.416;2024-01-07T05:39:03;100419.91;;;-6.18;71.81
35307;BME280;21420;52.196;21.416;2024-01-07T05:41:30;100417.04;;;-6.18;71.79
35307;BME280;21420;52.196;21.416;2024-01-07T05:43:57;100419.48;;;-6.18;71.61
35307;BME280;21420;52.196;21.416;2024-01-07T05:46:23;100421.48;;;-6.15;71.84
35307;BME280;21420;52.196;21.416;2024-01-07T05:48:50;100424.48;;;-6.14;71.75
35307;BME280;21420;52.196;21.416;2024-01-07T05:51:17;100426.09;;;-6.14;71.65
35307;BME280;21420;52.196;21.416;2024-01-07T05:53:44;100426.93;;;-6.12;71.82
35307;BME280;21420;52.196;21.416;2024-01-07T05:56:11;100428.46;;;-6.09;71.79
35307;BME280;21420;52.196;21.416;2024-01-07T05:58:38;100428.34;;;-6.10;71.71
35307;BME280;21420;52.196;21.416;2024-01-07T06:01:07;100429.44;;;-6.10;71.89
35307;BME280;21420;52.196;21.416;2024-01-07T06:03:35;100433.79;;;-6.09;71.79
35307;BME280;21420;52.196;21.416;2024-01-07T06:06:02;100430.55;;;-6.09;71.72
35307;BME280;21420;52.196;21.416;2024-01-07T06:08:29;100431.19;;;-6.05;71.86
35307;BME280;21420;52.196;21.416;2024-01-07T06:10:56;100431.80;;;-5.98;71.91
35307;BME280;21420;52.196;21.416;2024-01-07T06:13:22;100431.96;;;-5.96;71.83
35307;BME280;21420;52.196;21.416;2024-01-07T06:15:49;100430.75;;;-5.96;71.73
35307;BME280;21420;52.196;21.416;2024-01-07T06:18:16;100430.80;;;-6.00;71.73
35307;BME280;21420;52.196;21.416;2024-01-07T06:20:43;100434.34;;;-6.01;71.78
35307;BME280;21420;52.196;21.416;2024-01-07T06:23:09;100436.55;;;-6.00;71.88
35307;BME280;21420;52.196;21.416;2024-01-07T06:25:36;100438.20;;;-5.98;71.88
35307;BME280;21420;52.196;21.416;2024-01-07T06:28:03;100437.96;;;-5.94;71.82
35307;BME280;21420;52.196;21.416;2024-01-07T06:30:30;100440.80;;;-5.92;71.87
35307;BME280;21420;52.196;21.416;2024-01-07T06:32:56;100443.42;;;-5.91;71.89
35307;BME280;21420;52.196;21.416;2024-01-07T06:35:23;100445.66;;;-5.91;71.93
35307;BME280;21420;52.196;21.416;2024-01-07T06:37:50;100446.40;;;-5.91;71.81
35307;BME280;21420;52.196;21.416;2024-01-07T06:40:16;100453.13;;;-5.94;71.82
35307;BME280;21420;52.196;21.416;2024-01-07T06:42:43;100460.84;;;-5.95;71.83
35307;BME280;21420;52.196;21.416;2024-01-07T06:45:11;100459.75;;;-5.96;71.73
35307;BME280;21420;52.196;21.416;2024-01-07T06:47:37;100461.67;;;-5.98;71.74
35307;BME280;21420;52.196;21.416;2024-01-07T06:50:05;100468.91;;;-6.04;71.64
35307;BME280;21420;52.196;21.416;2024-01-07T06:52:32;100471.02;;;-6.09;71.66
35307;BME280;21420;52.196;21.416;2024-01-07T06:54:59;100472.27;;;-6.12;71.54
35307;BME280;21420;52.196;21.416;2024-01-07T06:57:25;100472.64;;;-6.16;71.62
35307;BME280;21420;52.196;21.416;2024-01-07T06:59:52;100472.65;;;-6.17;71.67
35307;BME280;21420;52.196;21.416;2024-01-07T07:02:20;100469.40;;;-6.17;71.78
35307;BME280;21420;52.196;21.416;2024-01-07T07:04:47;100468.56;;;-6.19;71.71
35307;BME280;21420;52.196;21.416;2024-01-07T07:07:14;100468.44;;;-6.25;71.47
35307;BME280;21420;52.196;21.416;2024-01-07T07:09:41;100473.52;;;-6.36;71.40
35307;BME280;21420;52.196;21.416;2024-01-07T07:12:08;100477.20;;;-6.43;71.32
35307;BME280;21420;52.196;21.416;2024-01-07T07:14:35;100482.30;;;-6.49;71.29
35307;BME280;21420;52.196;21.416;2024-01-07T07:17:01;100483.73;;;-6.54;71.38
35307;BME280;21420;52.196;21.416;2024-01-07T07:19:28;100486.82;;;-6.54;71.55
35307;BME280;21420;52.196;21.416;2024-01-07T07:21:56;100492.11;;;-6.51;71.49
35307;BME280;21420;52.196;21.416;2024-01-07T07:24:24;100490.83;;;-6.49;71.54
35307;BME280;21420;52.196;21.416;2024-01-07T07:26:51;100492.48;;;-6.43;71.67
35307;BME280;21420;52.196;21.416;2024-01-07T07:29:18;100494.06;;;-6.36;71.66
35307;BME280;21420;52.196;21.416;2024-01-07T07:31:44;100494.88;;;-6.32;71.84
35307;BME280;21420;52.196;21.416;2024-01-07T07:34:12;100496.91;;;-6.26;71.77
35307;BME280;21420;52.196;21.416;2024-01-07T07:36:38;100496.92;;;-6.20;71.74
35307;BME280;21420;52.196;21.416;2024-01-07T07:39:07;100500.48;;;-6.12;71.69
35307;BME280;21420;52.196;21.416;2024-01-07T07:41:34;100502.26;;;-6.06;71.65
35307;BME280;21420;52.196;21.416;2024-01-07T07:44:00;100497.71;;;-5.99;71.74
35307;BME280;21420;52.196;21.416;2024-01-07T07:46:27;100500.10;;;-5.95;71.75
35307;BME280;21420;52.196;21.416;2024-01-07T07:48:53;100503.23;;;-5.98;71.60
35307;BME280;21420;52.196;21.416;2024-01-07T07:51:20;100501.67;;;-5.98;71.50
35307;BME280;21420;52.196;21.416;2024-01-07T07:53:47;100506.13;;;-5.92;71.52
35307;BME280;21420;52.196;21.416;2024-01-07T07:56:13;100511.80;;;-5.80;71.66
35307;BME280;21420;52.196;21.416;2024-01-07T07:58:40;100504.95;;;-5.61;71.86
35307;BME280;21420;52.196;21.416;2024-01-07T08:01:06;100501.27;;;-5.41;72.02
35307;BME280;21420;52.196;21.416;2024-01-07T08:03:33;100500.66;;;-5.35;71.97
35307;BME280;21420;52.196;21.416;2024-01-07T08:06:01;100512.77;;;-5.44;71.58
35307;BME280;21420;52.196;21.416;2024-01-07T08:08:28;100511.52;;;-5.65;71.21
35307;BME280;21420;52.196;21.416;2024-01-07T08:10:54;100516.54;;;-5.78;71.19
35307;BME280;21420;52.196;21.416;2024-01-07T08:13:21;100516.77;;;-5.92;71.26
35307;BME280;21420;52.196;21.416;2024-01-07T08:15:47;100523.61;;;-5.97;71.32
35307;BME280;21420;52.196;21.416;2024-01-07T08:18:14;100524.35;;;-5.93;71.48
35307;BME280;21420;52.196;21.416;2024-01-07T08:20:41;100534.24;;;-5.90;71.42
35307;BME280;21420;52.196;21.416;2024-01-07T08:23:08;100532.66;;;-5.88;71.37
35307;BME280;21420;52.196;21.416;2024-01-07T08:25:34;100535.83;;;-5.88;71.53
35307;BME280;21420;52.196;21.416;2024-01-07T08:28:01;100535.13;;;-5.85;71.58
35307;BME280;21420;52.196;21.416;2024-01-07T08:30:28;100538.34;;;-5.83;71.46
35307;BME280;21420;52.196;21.416;2024-01-07T08:32:54;100540.74;;;-5.85;71.43
35307;BME280;21420;52.196;21.416;2024-01-07T08:35:22;100543.45;;;-5.84;71.49
35307;BME280;21420;52.196;21.416;2024-01-07T08:37:52;100540.98;;;-5.88;71.45
35307;BME280;21420;52.196;21.416;2024-01-07T08:40:19;100546.72;;;-5.90;71.49
35307;BME280;21420;52.196;21.416;2024-01-07T08:42:46;100544.88;;;-5.96;71.25
35307;BME280;21420;52.196;21.416;2024-01-07T08:45:13;100545.29;;;-5.99;71.12
35307;BME280;21420;52.196;21.416;2024-01-07T08:47:40;100544.10;;;-5.99;71.22
35307;BME280;21420;52.196;21.416;2024-01-07T08:50:10;100545.63;;;-5.64;72.02
35307;BME280;21420;52.196;21.416;2024-01-07T08:52:37;100549.02;;;-5.07;72.84
35307;BME280;21420;52.196;21.416;2024-01-07T08:55:04;100552.80;;;-4.61;73.05
35307;BME280;21420;52.196;21.416;2024-01-07T08:57:32;100557.42;;;-4.54;72.66
35307;BME280;21420;52.196;21.416;2024-01-07T08:59:59;100557.92;;;-4.60;72.20
35307;BME280;21420;52.196;21.416;2024-01-07T09:02:26;100557.50;;;-4.47;72.45
35307;BME280;21420;52.196;21.416;2024-01-07T09:04:53;100557.58;;;-4.19;72.74
35307;BME280;21420;52.196;21.416;2024-01-07T09:07:20;100559.67;;;-3.94;72.92
35307;BME280;21420;52.196;21.416;2024-01-07T09:09:48;100556.41;;;-3.94;72.51
35307;BME280;21420;52.196;21.416;2024-01-07T09:12:15;100555.13;;;-4.04;72.00
35307;BME280;21420;52.196;21.416;2024-01-07T09:14:42;100560.15;;;-4.29;71.57
35307;BME280;21420;52.196;21.416;2024-01-07T09:17:08;100563.38;;;-4.52;71.32
35307;BME280;21420;52.196;21.416;2024-01-07T09:19:35;100561.61;;;-4.80;71.02
35307;BME280;21420;52.196;21.416;2024-01-07T09:22:02;100564.96;;;-5.08;70.98
35307;BME280;21420;52.196;21.416;2024-01-07T09:24:28;100564.27;;;-5.26;70.93
35307;BME280;21420;52.196;21.416;2024-01-07T09:26:56;100564.52;;;-5.41;71.03
35307;BME280;21420;52.196;21.416;2024-01-07T09:29:23;100555.70;;;-5.56;71.14
35307;BME280;21420;52.196;21.416;2024-01-07T09:31:50;100548.41;;;-5.60;71.15
35307;BME280;21420;52.196;21.416;2024-01-07T09:34:16;100546.77;;;-5.60;71.31
35307;BME280;21420;52.196;21.416;2024-01-07T09:36:43;100546.04;;;-5.60;71.27
35307;BME280;21420;52.196;21.416;2024-01-07T09:39:11;100552.94;;;-5.63;71.14
35307;BME280;21420;52.196;21.416;2024-01-07T09:41:38;100554.24;;;-5.64;71.25
35307;BME280;21420;52.196;21.416;2024-01-07T09:44:06;100549.91;;;-5.66;71.27
35307;BME280;21420;52.196;21.416;2024-01-07T09:46:34;100548.86;;;-5.71;71.06
35307;BME280;21420;52.196;21.416;2024-01-07T09:49:03;100542.07;;;-5.77;71.11
35307;BME280;21420;52.196;21.416;2024-01-07T09:51:35;100546.64;;;-5.86;70.98
35307;BME280;21420;52.196;21.416;2024-01-07T09:54:02;100546.69;;;-5.91;71.03
35307;BME280;21420;52.196;21.416;2024-01-07T09:56:38;100547.33;;;-5.93;70.99
35307;BME280;21420;52.196;21.416;2024-01-07T09:59:09;100550.58;;;-5.90;71.14
35307;BME280;21420;52.196;21.416;2024-01-07T10:01:36;100550.67;;;-5.84;71.28
35307;BME280;21420;52.196;21.416;2024-01-07T10:04:04;100555.02;;;-5.80;71.35
35307;BME280;21420;52.196;21.416;2024-01-07T10:06:31;100552.86;;;-5.75;71.44
35307;BME280;21420;52.196;21.416;2024-01-07T10:08:58;100552.15;;;-5.74;71.44
35307;BME280;21420;52.196;21.416;2024-01-07T10:11:25;100554.14;;;-5.79;71.31
35307;BME280;21420;52.196;21.416;2024-01-07T10:13:53;100549.71;;;-5.79;71.23
35307;BME280;21420;52.196;21.416;2024-01-07T10:16:19;100549.39;;;-5.79;71.25
35307;BME280;21420;52.196;21.416;2024-01-07T10:18:46;100552.86;;;-5.79;71.18
35307;BME280;21420;52.196;21.416;2024-01-07T10:21:14;100552.21;;;-5.75;71.29
35307;BME280;21420;52.196;21.416;2024-01-07T10:23:40;100552.28;;;-5.69;71.27
35307;BME280;21420;52.196;21.416;2024-01-07T10:26:07;100551.79;;;-5.65;71.36
35307;BME280;21420;52.196;21.416;2024-01-07T10:28:49;100545.86;;;-5.66;71.43
35307;BME280;21420;52.196;21.416;2024-01-07T10:31:16;100548.05;;;-5.68;71.43
35307;BME280;21420;52.196;21.416;2024-01-07T10:33:43;100544.23;;;-5.67;71.33
35307;BME280;21420;52.196;21.416;2024-01-07T10:36:11;100544.42;;;-5.66;71.34
35307;BME280;21420;52.196;21.416;2024-01-07T10:38:39;100545.15;;;-5.62;71.24
35307;BME280;21420;52.196;21.416;2024-01-07T10:41:11;100544.98;;;-5.59;71.20
35307;BME280;21420;52.196;21.416;2024-01-07T10:43:38;100543.00;;;-5.55;71.20
35307;BME280;21420;52.196;21.416;2024-01-07T10:46:09;100539.12;;;-5.53;71.13
35307;BME280;21420;52.196;21.416;2024-01-07T10:48:38;100540.16;;;-5.54;71.12
35307;BME280;21420;52.196;21.416;2024-01-07T10:51:08;100538.94;;;-5.57;71.09
35307;BME280;21420;52.196;21.416;2024-01-07T10:53:37;100542.02;;;-5.60;71.14
35307;BME280;21420;52.196;21.416;2024-01-07T10:56:07;100542.99;;;-5.59;71.17
35307;BME280;21420;52.196;21.416;2024-01-07T10:58:36;100544.23;;;-5.57;71.16
35307;BME280;21420;52.196;21.416;2024-01-07T11:01:04;100536.65;;;-5.53;71.20
35307;BME280;21420;52.196;21.416;2024-01-07T11:03:51;100534.42;;;-5.49;71.24
35307;BME280;21420;52.196;21.416;2024-01-07T11:06:30;100532.84;;;-5.50;71.10
35307;BME280;21420;52.196;21.416;2024-01-07T11:09:17;100537.27;;;-5.52;70.99
35307;BME280;21420;52.196;21.416;2024-01-07T11:11:46;100541.19;;;-5.53;71.00
35307;BME280;21420;52.196;21.416;2024-01-07T11:14:36;100547.27;;;-5.51;71.19
35307;BME280;21420;52.196;21.416;2024-01-07T11:17:04;100545.52;;;-5.51;71.23
35307;BME280;21420;52.196;21.416;2024-01-07T11:19:32;100545.80;;;-5.52;71.29
35307;BME280;21420;52.196;21.416;2024-01-07T11:22:24;100543.83;;;-5.54;71.15
35307;BME280;21420;52.196;21.416;2024-01-07T11:24:52;100541.93;;;-5.54;71.21
35307;BME280;21420;52.196;21.416;2024-01-07T11:27:20;100543.25;;;-5.48;71.27
35307;BME280;21420;52.196;21.416;2024-01-07T11:29:55;100539.73;;;-5.46;71.19
35307;BME280;21420;52.196;21.416;2024-01-07T11:32:24;100544.84;;;-5.43;71.19
35307;BME280;21420;52.196;21.416;2024-01-07T11:34:54;100549.13;;;-5.42;71.26
35307;BME280;21420;52.196;21.416;2024-01-07T11:37:23;100549.73;;;-5.45;71.12
35307;BME280;21420;52.196;21.416;2024-01-07T11:39:55;100546.95;;;-5.49;71.13
35307;BME280;21420;52.196;21.416;2024-01-07T11:42:22;100551.00;;;-5.51;71.05
35307;BME280;21420;52.196;21.416;2024-01-07T11:44:53;100544.23;;;-5.53;70.98
35307;BME280;21420;52.196;21.416;2024-01-07T11:47:21;100547.25;;;-5.56;71.03
35307;BME280;21420;52.196;21.416;2024-01-07T11:49:48;100542.77;;;-5.53;71.09
35307;BME280;21420;52.196;21.416;2024-01-07T11:52:16;100545.95;;;-5.53;71.20
35307;BME280;21420;52.196;21.416;2024-01-07T11:54:44;100550.52;;;-5.58;70.96
35307;BME280;21420;52.196;21.416;2024-01-07T11:57:11;100548.95;;;-5.58;70.90
35307;BME280;21420;52.196;21.416;2024-01-07T11:59:37;100551.30;;;-5.58;70.94
35307;BME280;21420;52.196;21.416;2024-01-07T12:02:09;100545.72;;;-5.61;70.99
35307;BME280;21420;52.196;21.416;2024-01-07T12:04:36;100545.08;;;-5.59;71.05
35307;BME280;21420;52.196;21.416;2024-01-07T12:07:04;100546.52;;;-5.57;71.19
35307;BME280;21420;52.196;21.416;2024-01-07T12:09:31;100548.33;;;-5.54;71.14
35307;BME280;21420;52.196;21.416;2024-01-07T12:11:59;100546.30;;;-5.56;71.03
35307;BME280;21420;52.196;21.416;2024-01-07T12:14:27;100551.21;;;-5.58;70.98
35307;BME280;21420;52.196;21.416;2024-01-07T12:16:55;100554.11;;;-5.53;70.98
35307;BME280;21420;52.196;21.416;2024-01-07T12:19:22;100555.94;;;-5.49;71.11
35307;BME280;21420;52.196;21.416;2024-01-07T12:22:02;100561.27;;;-5.49;71.23
35307;BME280;21420;52.196;21.416;2024-01-07T12:24:29;100565.09;;;-5.48;71.17
35307;BME280;21420;52.196;21.416;2024-01-07T12:26:56;100564.34;;;-5.48;71.12
35307;BME280;21420;52.196;21.416;2024-01-07T12:29:22;100566.36;;;-5.54;70.95
35307;BME280;21420;52.196;21.416;2024-01-07T12:31:51;100567.55;;;-5.63;70.88
35307;BME280;21420;52.196;21.416;2024-01-07T12:34:18;100569.39;;;-5.64;70.85
35307;BME280;21420;52.196;21.416;2024-01-07T12:36:46;100572.52;;;-5.61;70.98
35307;BME280;21420;52.196;21.416;2024-01-07T12:39:13;100573.20;;;-5.57;70.87
35307;BME280;21420;52.196;21.416;2024-01-07T12:41:40;100570.13;;;-5.57;70.88
35307;BME280;21420;52.196;21.416;2024-01-07T12:44:06;100573.20;;;-5.59;70.71
35307;BME280;21420;52.196;21.416;2024-01-07T12:46:35;100575.94;;;-5.61;70.83
35307;BME280;21420;52.196;21.416;2024-01-07T12:49:01;100580.17;;;-5.66;70.83